Time;durP1;ratioP1;P1;durP2;ratioP2;P2;SDS_P1;SDS_P2;PMS_P1;PMS_P2;Temp;Humidity;BMP_temperature;BMP_pressure;BME280_temperature;BME280_humidity;BME280_pressure;Samples;Min_cycle;Max_cycle;Signal;HPM_P1;HPM_P2
2022/03/26 00:00:05;;;;;;;5.10;2.93;;;7.90;94.20;;;;;;6119540;23;20455;-69
2022/03/26 00:02:32;;;;;;;2.23;2.07;;;7.80;94.30;;;;;;6120253;23;20424;-69
2022/03/26 00:04:59;;;;;;;1.83;1.73;;;7.70;94.50;;;;;;6120693;23;20467;-68
2022/03/26 00:07:27;;;;;;;6.00;3.20;;;7.60;94.60;;;;;;6120264;23;20408;-69
2022/03/26 00:09:54;;;;;;;2.97;2.50;;;7.60;94.50;;;;;;6120241;23;20729;-69
2022/03/26 00:12:22;;;;;;;5.37;2.90;;;7.60;94.70;;;;;;6120395;23;20421;-68
2022/03/26 00:14:49;;;;;;;3.47;3.33;;;7.50;95.00;;;;;;6120173;23;20814;-69
2022/03/26 00:17:16;;;;;;;2.90;2.17;;;7.40;95.00;;;;;;6120290;23;20452;-68
2022/03/26 00:19:43;;;;;;;2.23;1.77;;;7.40;95.60;;;;;;6120523;23;20493;-69
2022/03/26 00:22:10;;;;;;;3.20;2.30;;;7.50;95.10;;;;;;6094633;23;20453;-69
2022/03/26 00:24:37;;;;;;;4.90;2.47;;;7.50;95.20;;;;;;6119663;23;20428;-69
2022/03/26 00:27:04;;;;;;;6.33;3.90;;;7.50;95.20;;;;;;6119729;23;20952;-69
2022/03/26 00:29:33;;;;;;;1.60;1.50;;;7.40;95.20;;;;;;6120100;23;20443;-69
2022/03/26 00:31:59;;;;;;;3.10;2.40;;;7.50;95.20;;;;;;6120073;23;20420;-69
2022/03/26 00:34:26;;;;;;;3.10;1.73;;;7.50;95.00;;;;;;6119710;23;20418;-68
2022/03/26 00:36:53;;;;;;;3.93;2.30;;;7.60;95.00;;;;;;6120219;23;20413;-68
2022/03/26 00:39:21;;;;;;;4.00;2.37;;;7.60;93.80;;;;;;6120321;23;20483;-69
2022/03/26 00:41:48;;;;;;;6.57;3.73;;;7.70;93.70;;;;;;6120180;23;20474;-69
2022/03/26 00:44:16;;;;;;;5.00;3.03;;;7.60;94.10;;;;;;6120135;23;20428;-68
2022/03/26 00:46:45;;;;;;;7.20;4.40;;;7.50;94.50;;;;;;6120371;23;20405;-69
2022/03/26 00:49:12;;;;;;;3.20;3.00;;;7.40;94.80;;;;;;6119572;23;20532;-69
2022/03/26 00:51:39;;;;;;;3.17;2.33;;;7.60;94.20;;;;;;6119706;23;20420;-68
2022/03/26 00:54:08;;;;;;;4.80;2.73;;;7.70;93.60;;;;;;6120042;23;20447;-69
2022/03/26 00:56:36;;;;;;;2.03;1.90;;;7.80;93.60;;;;;;6094979;23;20413;-68
2022/03/26 00:59:04;;;;;;;7.70;2.60;;;7.70;94.20;;;;;;6119958;23;20432;-68
2022/03/26 01:01:31;;;;;;;3.87;3.57;;;7.60;94.10;;;;;;6119912;23;20709;-69
2022/03/26 01:04:00;;;;;;;3.83;3.40;;;7.60;94.00;;;;;;6119587;23;20430;-68
2022/03/26 01:06:27;;;;;;;3.83;2.47;;;7.50;94.60;;;;;;6119361;23;20405;-68
2022/03/26 01:08:54;;;;;;;5.30;3.20;;;7.30;94.50;;;;;;6119768;23;20402;-69
2022/03/26 01:11:22;;;;;;;5.53;2.70;;;7.30;94.70;;;;;;6120141;23;20418;-69
2022/03/26 01:13:53;;;;;;;1.93;1.63;;;7.30;94.80;;;;;;6121023;23;20445;-68
2022/03/26 01:16:20;;;;;;;3.00;2.43;;;7.40;94.90;;;;;;6119099;23;20424;-68
2022/03/26 01:18:47;;;;;;;10.33;3.17;;;7.40;94.70;;;;;;6120447;23;20501;-69
2022/03/26 01:21:15;;;;;;;2.80;1.97;;;7.40;94.50;;;;;;6120530;23;20877;-68
2022/03/26 01:23:43;;;;;;;4.10;3.60;;;7.40;94.50;;;;;;6120487;23;20427;-68
2022/03/26 01:26:10;;;;;;;2.83;2.63;;;7.30;94.90;;;;;;6120985;23;20428;-69
2022/03/26 01:28:37;;;;;;;7.13;3.63;;;7.20;95.20;;;;;;6121495;23;20433;-68
2022/03/26 01:31:04;;;;;;;4.43;3.43;;;7.30;94.80;;;;;;6120985;23;20448;-69
2022/03/26 01:33:31;;;;;;;3.03;2.57;;;7.20;95.10;;;;;;6121452;23;20741;-68
2022/03/26 01:35:58;;;;;;;3.20;2.30;;;7.10;95.50;;;;;;6121489;23;20466;-68
2022/03/26 01:38:26;;;;;;;8.00;4.13;;;7.20;95.70;;;;;;6095597;23;20826;-68
2022/03/26 01:40:54;;;;;;;3.30;1.50;;;7.20;95.30;;;;;;6122157;23;20401;-69
2022/03/26 01:43:21;;;;;;;4.60;2.07;;;7.10;95.60;;;;;;6094980;23;20428;-68
2022/03/26 01:45:48;;;;;;;4.87;2.03;;;7.30;95.70;;;;;;6120452;23;20474;-68
2022/03/26 01:48:16;;;;;;;2.93;2.50;;;7.30;95.00;;;;;;6120960;23;20424;-68
2022/03/26 01:50:43;;;;;;;3.27;1.90;;;7.10;95.40;;;;;;6120471;23;20431;-68
2022/03/26 01:53:10;;;;;;;3.43;2.77;;;7.00;95.60;;;;;;6120982;23;20409;-69
2022/03/26 01:55:38;;;;;;;2.67;2.20;;;6.90;96.00;;;;;;6120741;23;20427;-68
2022/03/26 01:58:05;;;;;;;5.30;2.70;;;6.80;96.50;;;;;;6120340;23;20431;-69
2022/03/26 02:00:34;;;;;;;3.27;2.13;;;6.80;96.70;;;;;;6121267;23;20750;-68
2022/03/26 02:03:02;;;;;;;5.53;2.07;;;6.70;97.40;;;;;;6120379;23;20450;-68
2022/03/26 02:05:29;;;;;;;3.27;2.70;;;6.80;97.50;;;;;;6120360;23;20421;-68
2022/03/26 02:08:04;;;;;;;2.33;2.00;;;6.70;97.50;;;;;;6121065;23;20455;-69
2022/03/26 02:10:31;;;;;;;2.00;1.80;;;6.80;97.70;;;;;;6095296;23;21003;-69
2022/03/26 02:13:00;;;;;;;2.27;2.13;;;6.80;97.00;;;;;;6120663;23;20404;-69
2022/03/26 02:15:27;;;;;;;3.30;2.37;;;6.80;96.50;;;;;;6120109;23;20439;-69
2022/03/26 02:17:55;;;;;;;5.50;3.83;;;6.80;97.00;;;;;;6094983;23;20406;-68
2022/03/26 02:20:24;;;;;;;4.00;2.90;;;6.80;96.50;;;;;;6120914;23;20523;-69
2022/03/26 02:22:51;;;;;;;3.23;2.50;;;6.60;97.30;;;;;;6119886;23;20415;-69
2022/03/26 02:25:18;;;;;;;2.50;1.93;;;6.50;97.90;;;;;;6121075;23;20413;-69
2022/03/26 02:27:45;;;;;;;3.73;1.93;;;6.50;98.00;;;;;;6120956;23;20424;-69
2022/03/26 02:30:13;;;;;;;3.53;1.90;;;6.50;97.90;;;;;;6120710;23;20448;-69
2022/03/26 02:32:40;;;;;;;3.93;2.37;;;6.40;98.00;;;;;;6119869;23;20803;-69
2022/03/26 02:35:09;;;;;;;1.70;1.63;;;6.40;98.00;;;;;;6120684;23;20455;-69
2022/03/26 02:37:37;;;;;;;5.57;2.30;;;6.30;98.00;;;;;;6120581;23;20440;-69
2022/03/26 02:40:07;;;;;;;2.47;2.30;;;6.30;98.00;;;;;;6120206;23;20959;-69
2022/03/26 02:42:34;;;;;;;4.47;2.83;;;6.40;98.00;;;;;;6120848;23;20441;-69
2022/03/26 02:45:02;;;;;;;5.57;2.30;;;6.20;98.00;;;;;;6120237;23;20418;-69
2022/03/26 02:47:29;;;;;;;1.90;1.87;;;6.30;98.00;;;;;;6120494;23;20895;-69
2022/03/26 02:49:56;;;;;;;4.97;3.40;;;6.40;98.00;;;;;;6120854;23;20450;-70
2022/03/26 02:52:26;;;;;;;2.53;2.20;;;6.30;98.00;;;;;;6095181;23;20454;-70
2022/03/26 02:54:54;;;;;;;2.70;2.50;;;6.30;98.00;;;;;;6120562;23;20928;-69
2022/03/26 02:57:21;;;;;;;8.73;2.87;;;6.30;98.00;;;;;;6120656;23;20781;-69
2022/03/26 02:59:49;;;;;;;2.10;1.97;;;6.30;98.00;;;;;;6120571;23;20943;-69
2022/03/26 03:02:16;;;;;;;4.40;1.77;;;6.30;98.00;;;;;;6120641;23;20769;-69
2022/03/26 03:04:44;;;;;;;5.47;3.20;;;6.30;98.00;;;;;;6120439;23;20400;-69
2022/03/26 03:07:10;;;;;;;4.17;3.33;;;6.20;98.00;;;;;;6120157;23;20422;-69
2022/03/26 03:09:37;;;;;;;2.03;1.90;;;6.10;98.00;;;;;;6120564;23;20424;-69
2022/03/26 03:12:07;;;;;;;3.00;2.60;;;6.00;98.00;;;;;;6120303;23;20458;-69
2022/03/26 03:14:36;;;;;;;3.30;2.60;;;5.90;98.00;;;;;;6120993;23;20427;-69
2022/03/26 03:17:03;;;;;;;2.70;1.93;;;5.80;98.00;;;;;;6120689;23;20402;-69
2022/03/26 03:19:30;;;;;;;9.00;4.40;;;5.80;98.00;;;;;;6120246;23;20971;-69
2022/03/26 03:21:57;;;;;;;5.50;2.43;;;5.80;98.00;;;;;;6120560;23;20403;-69
2022/03/26 03:24:24;;;;;;;1.53;1.50;;;5.80;98.00;;;;;;6120515;23;20398;-69
2022/03/26 03:26:51;;;;;;;2.90;2.07;;;5.70;98.00;;;;;;6119949;23;20902;-69
2022/03/26 03:29:19;;;;;;;2.10;2.00;;;5.90;98.00;;;;;;6120464;23;20702;-69
2022/03/26 03:31:48;;;;;;;3.20;2.40;;;5.90;98.00;;;;;;6119923;23;20454;-69
2022/03/26 03:34:32;;;;;;;4.73;2.47;;;6.00;98.00;;;;;;6120546;23;20419;-69
2022/03/26 03:37:00;;;;;;;4.23;2.33;;;5.80;98.00;;;;;;6119409;23;20918;-69
2022/03/26 03:39:27;;;;;;;3.00;2.10;;;5.70;98.00;;;;;;6094867;23;20820;-69
2022/03/26 03:41:54;;;;;;;2.27;2.10;;;5.70;98.00;;;;;;6120656;23;20446;-69
2022/03/26 03:44:22;;;;;;;2.07;1.67;;;5.70;98.00;;;;;;6120526;23;20445;-69
2022/03/26 03:46:49;;;;;;;1.77;1.73;;;5.70;98.00;;;;;;6120304;23;20415;-69
2022/03/26 03:49:16;;;;;;;2.53;2.07;;;5.60;98.00;;;;;;6120107;23;20453;-70
2022/03/26 03:51:44;;;;;;;1.70;1.70;;;5.50;98.00;;;;;;6120027;23;20414;-69
2022/03/26 03:54:11;;;;;;;2.73;2.27;;;5.40;98.00;;;;;;6119995;23;20935;-69
2022/03/26 03:56:38;;;;;;;2.33;2.07;;;5.40;98.00;;;;;;6095183;23;20425;-70
2022/03/26 03:59:05;;;;;;;6.40;3.03;;;5.20;98.00;;;;;;6119880;23;20473;-69
2022/03/26 04:01:41;;;;;;;4.17;3.67;;;5.30;98.00;;;;;;6120321;23;20458;-69
2022/03/26 04:04:08;;;;;;;8.23;2.90;;;5.30;98.00;;;;;;6120400;23;20525;-69
2022/03/26 04:06:35;;;;;;;2.10;1.90;;;5.10;98.00;;;;;;6120081;23;20470;-69
2022/03/26 04:09:02;;;;;;;2.27;2.07;;;5.00;98.00;;;;;;6120417;23;20687;-70
2022/03/26 04:11:29;;;;;;;2.43;2.30;;;5.10;98.00;;;;;;6119954;23;20447;-69
2022/03/26 04:13:57;;;;;;;2.50;1.87;;;5.20;98.00;;;;;;6120287;23;20456;-69
2022/03/26 04:16:24;;;;;;;3.63;2.27;;;5.20;98.00;;;;;;6119971;23;20452;-69
2022/03/26 04:18:54;;;;;;;1.40;1.30;;;5.10;98.00;;;;;;6119876;23;20448;-69
2022/03/26 04:21:21;;;;;;;1.20;1.10;;;5.00;98.00;;;;;;6093991;23;20430;-69
2022/03/26 04:23:48;;;;;;;2.20;2.00;;;5.00;98.00;;;;;;6119781;23;20442;-69
2022/03/26 04:26:15;;;;;;;3.00;2.57;;;5.00;98.00;;;;;;6119577;23;20430;-69
2022/03/26 04:28:44;;;;;;;9.50;2.50;;;5.00;98.00;;;;;;6094838;23;20402;-69
2022/03/26 04:31:10;;;;;;;3.83;3.60;;;4.90;98.00;;;;;;6094632;23;20419;-69
2022/03/26 04:33:37;;;;;;;2.30;2.10;;;4.90;98.00;;;;;;6119590;23;20447;-69
2022/03/26 04:36:06;;;;;;;2.37;1.87;;;4.80;98.00;;;;;;6119885;23;20799;-69
2022/03/26 04:38:33;;;;;;;4.70;3.50;;;4.90;98.00;;;;;;6120065;23;20449;-69
2022/03/26 04:41:00;;;;;;;1.83;1.73;;;4.70;98.00;;;;;;6119594;23;20957;-69
2022/03/26 04:43:27;;;;;;;2.40;2.10;;;4.60;98.00;;;;;;6119921;23;20415;-69
2022/03/26 04:45:53;;;;;;;4.50;2.23;;;4.70;98.00;;;;;;6119086;23;20898;-69
2022/03/26 04:48:20;;;;;;;2.80;2.07;;;4.70;98.00;;;;;;6119916;23;20415;-69
2022/03/26 04:50:47;;;;;;;3.40;3.20;;;4.70;98.00;;;;;;6237353;23;20431;-69
2022/03/26 04:53:16;;;;;;;4.40;2.77;;;4.70;98.00;;;;;;6243348;22;20965;-69
2022/03/26 04:55:43;;;;;;;2.53;2.30;;;4.60;98.00;;;;;;6243434;22;20417;-69
2022/03/26 04:58:10;;;;;;;4.80;2.70;;;4.70;98.00;;;;;;6242662;23;20778;-69
2022/03/26 05:00:37;;;;;;;2.20;2.07;;;4.50;98.00;;;;;;6243365;22;20511;-69
2022/03/26 05:03:04;;;;;;;2.50;2.10;;;4.50;98.00;;;;;;6243913;22;20458;-69
2022/03/26 05:05:31;;;;;;;2.40;2.07;;;4.50;98.00;;;;;;6243658;22;20793;-69
2022/03/26 05:07:59;;;;;;;2.10;1.97;;;4.30;98.00;;;;;;6243751;22;20427;-70
2022/03/26 05:10:29;;;;;;;5.00;2.80;;;4.30;98.00;;;;;;6243667;22;20798;-69
2022/03/26 05:12:58;;;;;;;3.63;2.97;;;4.20;98.00;;;;;;6243694;22;20439;-69
2022/03/26 05:15:28;;;;;;;1.83;1.73;;;4.30;98.00;;;;;;6243648;22;20406;-69
2022/03/26 05:17:55;;;;;;;2.73;2.33;;;4.30;98.00;;;;;;6243232;22;20459;-69
2022/03/26 05:20:24;;;;;;;2.37;2.17;;;4.20;98.00;;;;;;6243550;22;20511;-69
2022/03/26 05:22:53;;;;;;;2.07;1.93;;;4.10;98.00;;;;;;6243805;22;20488;-69
2022/03/26 05:25:21;;;;;;;2.23;2.03;;;4.20;98.00;;;;;;6243708;22;20455;-69
2022/03/26 05:27:51;;;;;;;1.63;1.43;;;4.30;98.00;;;;;;6243329;22;20874;-70
2022/03/26 05:30:19;;;;;;;2.67;2.50;;;4.30;98.00;;;;;;6243662;22;20459;-69
2022/03/26 05:32:46;;;;;;;2.80;2.10;;;4.20;98.00;;;;;;6243645;22;20397;-69
2022/03/26 05:35:14;;;;;;;4.40;2.60;;;4.10;98.00;;;;;;6243148;22;20919;-69
2022/03/26 05:37:42;;;;;;;1.63;1.53;;;4.00;98.00;;;;;;6243740;22;20413;-69
2022/03/26 05:40:10;;;;;;;2.70;2.10;;;3.90;98.00;;;;;;6243170;22;21029;-69
2022/03/26 05:42:37;;;;;;;3.30;2.00;;;4.00;98.00;;;;;;6243567;22;20462;-69
2022/03/26 05:45:07;;;;;;;3.13;2.93;;;4.00;98.00;;;;;;6243522;22;20421;-70
2022/03/26 05:47:35;;;;;;;1.97;1.87;;;4.20;98.00;;;;;;6243693;22;20420;-69
2022/03/26 05:50:02;;;;;;;2.10;1.97;;;4.30;98.00;;;;;;6162079;22;20433;-69
2022/03/26 05:52:29;;;;;;;1.63;1.53;;;4.20;98.00;;;;;;6118575;23;20417;-69
2022/03/26 05:54:56;;;;;;;2.20;1.47;;;4.20;98.00;;;;;;6119574;23;20544;-69
2022/03/26 05:57:23;;;;;;;3.10;2.60;;;4.10;98.00;;;;;;6119443;23;20482;-69
2022/03/26 05:59:50;;;;;;;3.03;2.73;;;4.10;98.00;;;;;;6094493;23;20504;-70
2022/03/26 06:02:18;;;;;;;2.80;2.60;;;4.10;98.00;;;;;;6120419;23;20453;-70
2022/03/26 06:04:45;;;;;;;1.47;1.37;;;4.10;98.00;;;;;;6120712;23;20420;-69
2022/03/26 06:07:12;;;;;;;2.40;2.10;;;4.20;98.00;;;;;;6120370;23;20405;-70
2022/03/26 06:09:40;;;;;;;2.17;1.60;;;4.30;98.00;;;;;;6120743;23;20448;-70
2022/03/26 06:12:08;;;;;;;2.33;2.10;;;4.40;98.00;;;;;;6120945;23;20401;-69
2022/03/26 06:14:35;;;;;;;1.90;1.83;;;4.40;98.00;;;;;;6094714;23;20399;-69
2022/03/26 06:17:05;;;;;;;1.87;1.63;;;4.50;98.00;;;;;;6120689;23;20411;-69
2022/03/26 06:19:35;;;;;;;4.13;2.27;;;4.60;98.00;;;;;;6095614;23;20515;-69
2022/03/26 06:22:02;;;;;;;1.23;1.23;;;4.70;98.00;;;;;;6120673;23;20402;-70
2022/03/26 06:24:29;;;;;;;3.87;3.47;;;4.80;98.00;;;;;;6121210;23;20405;-70
2022/03/26 06:26:56;;;;;;;5.00;3.60;;;4.60;98.00;;;;;;6120718;23;20777;-69
2022/03/26 06:29:23;;;;;;;2.43;2.10;;;4.50;98.00;;;;;;6120566;23;20435;-70
2022/03/26 06:31:50;;;;;;;6.20;3.53;;;4.50;98.00;;;;;;6120578;23;20478;-69
2022/03/26 06:34:17;;;;;;;2.90;2.40;;;4.50;98.00;;;;;;6095573;23;20726;-69
2022/03/26 06:36:45;;;;;;;4.27;2.50;;;4.60;98.00;;;;;;6120732;23;20447;-70
2022/03/26 06:39:12;;;;;;;2.20;1.70;;;4.60;98.00;;;;;;6120995;23;20455;-69
2022/03/26 06:41:39;;;;;;;5.97;4.30;;;4.60;98.00;;;;;;6120905;23;20424;-69
2022/03/26 06:44:08;;;;;;;7.27;2.97;;;4.90;98.00;;;;;;6121105;23;20771;-69
2022/03/26 06:46:36;;;;;;;4.90;2.13;;;5.10;98.00;;;;;;6120566;23;20918;-69
2022/03/26 06:49:03;;;;;;;2.37;2.20;;;5.20;98.00;;;;;;6120604;23;20521;-69
2022/03/26 06:51:31;;;;;;;3.53;2.70;;;5.30;98.00;;;;;;6121045;23;20452;-69
2022/03/26 06:54:00;;;;;;;2.60;2.07;;;5.50;98.00;;;;;;6121805;23;20474;-70
2022/03/26 06:56:26;;;;;;;2.67;2.03;;;5.50;98.00;;;;;;6120680;23;20416;-69
2022/03/26 06:58:54;;;;;;;2.10;1.97;;;5.60;98.00;;;;;;6121323;23;20756;-70
2022/03/26 07:01:21;;;;;;;3.20;2.90;;;5.90;98.00;;;;;;6120409;23;20751;-69
2022/03/26 07:03:48;;;;;;;4.97;3.23;;;6.00;98.00;;;;;;6120576;23;20484;-69
2022/03/26 07:06:19;;;;;;;2.20;2.03;;;6.10;98.00;;;;;;6120258;23;20915;-70
2022/03/26 07:08:46;;;;;;;3.63;2.20;;;6.20;98.00;;;;;;6120061;23;21078;-69
2022/03/26 07:11:22;;;;;;;2.90;2.50;;;6.30;98.00;;;;;;6120446;23;20477;-69
2022/03/26 07:13:49;;;;;;;2.70;1.87;;;6.40;98.00;;;;;;6120686;23;20437;-69
2022/03/26 07:16:19;;;;;;;8.20;4.03;;;6.40;98.00;;;;;;6120413;23;20448;-69
2022/03/26 07:18:46;;;;;;;3.67;3.10;;;6.30;98.00;;;;;;6120589;23;20441;-69
2022/03/26 07:21:13;;;;;;;2.40;2.20;;;6.40;98.00;;;;;;6120397;23;20462;-69
2022/03/26 07:23:40;;;;;;;2.30;1.93;;;6.60;98.00;;;;;;6120649;23;20445;-68
2022/03/26 07:26:06;;;;;;;8.50;2.80;;;6.70;98.00;;;;;;6120080;23;20418;-68
2022/03/26 07:28:35;;;;;;;4.73;2.30;;;6.90;98.00;;;;;;6120257;23;20403;-68
2022/03/26 07:31:02;;;;;;;3.00;2.13;;;7.10;98.00;;;;;;6120588;23;20932;-68
2022/03/26 07:33:29;;;;;;;1.93;1.83;;;7.30;98.00;;;;;;6120814;23;20482;-68
2022/03/26 07:35:56;;;;;;;3.67;2.13;;;7.40;97.60;;;;;;6120326;23;21073;-68
2022/03/26 07:38:23;;;;;;;3.23;2.27;;;7.50;97.10;;;;;;6094165;23;20453;-68
2022/03/26 07:40:52;;;;;;;2.90;2.33;;;7.70;97.40;;;;;;6070087;23;20517;-68
2022/03/26 07:43:19;;;;;;;1.97;1.73;;;7.80;97.10;;;;;;6120200;23;20436;-68
2022/03/26 07:45:47;;;;;;;2.93;1.73;;;7.90;96.60;;;;;;6118733;23;20447;-68
2022/03/26 07:48:14;;;;;;;2.83;2.63;;;7.90;96.60;;;;;;6119940;23;20475;-68
2022/03/26 07:50:41;;;;;;;5.13;2.60;;;8.10;96.10;;;;;;6119690;23;20436;-68
2022/03/26 07:53:08;;;;;;;2.70;2.20;;;8.10;95.80;;;;;;6120457;23;20505;-68
2022/03/26 07:55:35;;;;;;;3.27;1.93;;;8.30;96.40;;;;;;6094895;23;20420;-68
2022/03/26 07:58:02;;;;;;;3.03;2.17;;;8.50;95.30;;;;;;6119911;23;20424;-69
2022/03/26 08:00:29;;;;;;;4.67;1.93;;;8.70;94.70;;;;;;6119886;23;20431;-68
2022/03/26 08:02:57;;;;;;;3.00;2.27;;;8.80;94.60;;;;;;6119826;23;20481;-68
2022/03/26 08:05:24;;;;;;;2.73;2.10;;;8.90;94.70;;;;;;6119851;23;20428;-69
2022/03/26 08:07:51;;;;;;;4.90;2.70;;;9.00;94.40;;;;;;6117136;23;20458;-69
2022/03/26 08:10:19;;;;;;;9.00;2.20;;;9.20;93.70;;;;;;6120259;23;20410;-68
2022/03/26 08:12:46;;;;;;;8.77;3.50;;;9.40;93.30;;;;;;6117645;23;20421;-68
2022/03/26 08:15:13;;;;;;;4.33;3.27;;;9.50;92.50;;;;;;6119147;23;20900;-68
2022/03/26 08:17:40;;;;;;;4.73;3.00;;;9.60;92.80;;;;;;6118720;23;20945;-68
2022/03/26 08:20:10;;;;;;;3.40;2.07;;;9.80;92.20;;;;;;6118553;23;20927;-68
2022/03/26 08:22:38;;;;;;;1.93;1.83;;;9.90;91.40;;;;;;6117721;23;20405;-69
2022/03/26 08:25:09;;;;;;;5.37;3.70;;;10.10;91.50;;;;;;6119385;23;20756;-68
2022/03/26 08:27:36;;;;;;;3.30;2.67;;;10.10;91.40;;;;;;6118973;23;20461;-68
2022/03/26 08:30:03;;;;;;;3.60;2.70;;;10.30;92.30;;;;;;6118834;23;20946;-69
2022/03/26 08:32:30;;;;;;;4.27;2.07;;;10.40;90.50;;;;;;6118654;23;20950;-68
2022/03/26 08:34:57;;;;;;;6.30;4.20;;;10.50;90.40;;;;;;6119185;23;20740;-69
2022/03/26 08:37:29;;;;;;;6.47;2.40;;;10.70;90.10;;;;;;6118681;23;20427;-69
2022/03/26 08:39:56;;;;;;;4.67;3.10;;;10.90;90.40;;;;;;6093671;23;20412;-68
2022/03/26 08:42:23;;;;;;;4.03;3.03;;;11.10;90.60;;;;;;6119047;23;20440;-68
2022/03/26 08:44:50;;;;;;;3.43;3.10;;;11.30;88.90;;;;;;6093163;23;20426;-68
2022/03/26 08:47:17;;;;;;;2.97;2.30;;;11.50;87.50;;;;;;6118765;23;20409;-68
2022/03/26 08:49:45;;;;;;;3.03;2.67;;;11.70;87.40;;;;;;6117777;23;20463;-68
2022/03/26 08:52:13;;;;;;;7.77;3.60;;;11.80;86.40;;;;;;6119151;23;20733;-68
2022/03/26 08:54:42;;;;;;;3.40;2.80;;;11.90;84.90;;;;;;6118408;23;20412;-68
2022/03/26 08:57:09;;;;;;;3.17;2.73;;;12.00;85.90;;;;;;6118863;23;20411;-68
2022/03/26 08:59:36;;;;;;;3.90;2.20;;;12.20;85.80;;;;;;6118477;23;20420;-68
2022/03/26 09:02:04;;;;;;;4.30;2.60;;;12.30;84.40;;;;;;6118510;23;20430;-69
2022/03/26 09:04:31;;;;;;;7.63;3.40;;;12.40;84.50;;;;;;6118578;23;20419;-69
2022/03/26 09:06:58;;;;;;;5.47;3.47;;;12.60;84.30;;;;;;6118820;23;20459;-68
2022/03/26 09:09:25;;;;;;;2.80;2.37;;;12.70;83.10;;;;;;6118759;23;20432;-68
2022/03/26 09:11:54;;;;;;;3.57;2.40;;;12.80;83.70;;;;;;6119648;23;20403;-68
2022/03/26 09:14:21;;;;;;;5.43;3.60;;;13.00;84.20;;;;;;6119495;23;20447;-68
2022/03/26 09:16:48;;;;;;;7.23;3.63;;;13.20;82.90;;;;;;6094595;23;20419;-68
2022/03/26 09:19:14;;;;;;;4.87;3.43;;;13.30;81.30;;;;;;6119976;23;20430;-69
2022/03/26 09:21:42;;;;;;;8.63;4.00;;;13.40;82.10;;;;;;6119412;23;20447;-69
2022/03/26 09:24:09;;;;;;;2.70;2.40;;;13.70;81.60;;;;;;6119080;23;20429;-70
2022/03/26 09:26:37;;;;;;;5.57;3.70;;;13.90;81.90;;;;;;6119068;23;20419;-70
2022/03/26 09:29:05;;;;;;;7.70;3.83;;;14.20;81.20;;;;;;6119708;23;20438;-69
2022/03/26 09:31:32;;;;;;;6.10;3.67;;;14.50;81.30;;;;;;6119173;23;20872;-69
2022/03/26 09:34:00;;;;;;;4.40;3.17;;;14.70;80.50;;;;;;6120561;23;20466;-69
2022/03/26 09:36:27;;;;;;;5.73;3.47;;;14.90;77.60;;;;;;6094405;23;20421;-69
2022/03/26 09:38:54;;;;;;;4.73;3.60;;;15.10;78.60;;;;;;6120738;23;20776;-70
2022/03/26 09:41:23;;;;;;;8.73;4.23;;;15.40;78.00;;;;;;6120070;23;20444;-69
2022/03/26 09:43:50;;;;;;;7.83;3.80;;;15.60;78.40;;;;;;6119843;23;20742;-70
2022/03/26 09:46:19;;;;;;;3.83;2.53;;;15.80;77.10;;;;;;6120624;23;20496;-70
2022/03/26 09:48:46;;;;;;;8.60;4.10;;;16.10;76.30;;;;;;6120396;23;20421;-70
2022/03/26 09:51:14;;;;;;;8.60;5.23;;;16.20;72.60;;;;;;6120613;23;20401;-70
2022/03/26 09:53:42;;;;;;;7.10;5.60;;;16.50;74.40;;;;;;6120802;23;20470;-70
2022/03/26 09:56:11;;;;;;;6.50;4.03;;;16.70;71.70;;;;;;6094703;23;20750;-69
2022/03/26 09:58:38;;;;;;;8.13;4.40;;;16.90;73.30;;;;;;6120532;23;20456;-69
2022/03/26 10:01:05;;;;;;;4.73;3.07;;;17.10;70.40;;;;;;6120698;23;20495;-69
2022/03/26 10:03:38;;;;;;;8.13;3.67;;;17.40;69.90;;;;;;6120796;23;20444;-69
2022/03/26 10:06:07;;;;;;;7.13;3.23;;;17.60;69.70;;;;;;6120675;23;20406;-70
2022/03/26 10:08:36;;;;;;;12.53;4.47;;;17.80;69.30;;;;;;6120745;23;20899;-69
2022/03/26 10:11:06;;;;;;;6.10;3.50;;;18.10;68.90;;;;;;6121284;23;20425;-70
2022/03/26 10:13:39;;;;;;;6.23;3.83;;;18.10;66.80;;;;;;6095428;23;20405;-70
2022/03/26 10:16:07;;;;;;;5.83;4.00;;;18.20;64.70;;;;;;6120945;23;20455;-70
2022/03/26 10:18:39;;;;;;;5.40;3.67;;;18.40;66.00;;;;;;6120453;23;20480;-70
2022/03/26 10:21:12;;;;;;;7.27;4.20;;;18.60;66.00;;;;;;6120637;23;20472;-70
2022/03/26 10:23:42;;;;;;;7.83;4.37;;;18.90;65.10;;;;;;6120724;23;20441;-70
2022/03/26 10:26:11;;;;;;;6.10;3.13;;;19.10;63.90;;;;;;6120549;23;20434;-70
2022/03/26 10:28:40;;;;;;;12.27;5.77;;;19.30;64.10;;;;;;6120669;23;20725;-70
2022/03/26 10:34:06;;;;;;;8.93;4.17;;;19.60;63.80;;;;;;6120442;23;20420;-70
2022/03/26 10:36:36;;;;;;;8.80;4.23;;;19.90;63.40;;;;;;6120351;23;20413;-69
2022/03/26 10:39:04;;;;;;;6.23;4.07;;;19.90;62.10;;;;;;6121452;23;20422;-70
2022/03/26 10:41:35;;;;;;;12.80;4.97;;;20.10;61.70;;;;;;6120836;23;20437;-70
2022/03/26 10:44:10;;;;;;;7.03;3.73;;;20.30;63.00;;;;;;6120731;23;20413;-69
2022/03/26 10:46:46;;;;;;;9.73;4.27;;;20.40;59.70;;;;;;6121346;23;20436;-70
2022/03/26 10:49:24;;;;;;;7.77;4.00;;;20.40;60.80;;;;;;6121413;23;20425;-70
2022/03/26 10:51:53;;;;;;;7.90;3.80;;;20.50;61.00;;;;;;6120982;23;20922;-69
2022/03/26 10:54:27;;;;;;;9.13;4.63;;;20.70;60.50;;;;;;6121397;23;20418;-70
2022/03/26 10:56:55;;;;;;;13.70;4.07;;;20.90;59.90;;;;;;6121371;23;20440;-70
2022/03/26 10:59:24;;;;;;;6.73;3.80;;;21.20;60.00;;;;;;6121492;23;20409;-69
2022/03/26 11:01:51;;;;;;;10.07;4.57;;;21.30;58.30;;;;;;6095683;23;20499;-69
2022/03/26 11:04:19;;;;;;;8.40;3.60;;;21.30;56.80;;;;;;6121048;23;20973;-70
2022/03/26 11:06:48;;;;;;;10.90;4.63;;;21.30;58.10;;;;;;6121032;23;20733;-71
2022/03/26 11:09:16;;;;;;;6.87;3.10;;;21.40;58.10;;;;;;6121148;23;20490;-70
2022/03/26 11:11:45;;;;;;;10.47;4.30;;;21.50;57.10;;;;;;6120418;23;20421;-70
2022/03/26 11:14:18;;;;;;;7.47;4.27;;;21.60;58.40;;;;;;6120901;23;20500;-70
2022/03/26 11:16:57;;;;;;;10.47;4.97;;;21.60;58.30;;;;;;6120738;23;20451;-70
2022/03/26 11:19:42;;;;;;;7.67;4.27;;;21.70;56.80;;;;;;6120965;23;20487;-70
2022/03/26 11:22:30;;;;;;;10.20;4.13;;;21.80;57.20;;;;;;6121160;23;20463;-69
2022/03/26 11:25:17;;;;;;;6.77;3.47;;;22.00;58.50;;;;;;6120922;23;20398;-70
2022/03/26 11:28:00;;;;;;;10.07;4.40;;;22.20;57.90;;;;;;6121329;23;20408;-69
2022/03/26 11:30:37;;;;;;;6.83;4.27;;;22.30;56.20;;;;;;6121410;23;20402;-73
2022/03/26 11:33:11;;;;;;;11.27;3.80;;;22.30;55.80;;;;;;6121137;23;20410;-73
2022/03/26 11:35:53;;;;;;;8.17;3.60;;;22.50;56.10;;;;;;6120905;23;20401;-71
2022/03/26 11:38:20;;;;;;;7.80;3.80;;;22.70;55.20;;;;;;6120672;23;20905;-71
2022/03/26 11:40:53;;;;;;;9.90;4.77;;;22.70;55.10;;;;;;6121363;23;20406;-71
2022/03/26 11:43:53;;;;;;;8.33;4.00;;;22.90;54.80;;;;;;6121299;23;20521;-72
2022/03/26 11:52:17;;;;;;;8.43;3.87;;;23.40;54.20;;;;;;6131320;23;20859;-72
2022/03/26 11:54:44;;;;;;;7.33;3.40;;;23.40;52.10;;;;;;6121385;23;20780;-70
2022/03/26 11:57:16;;;;;;;7.97;4.13;;;23.40;51.90;;;;;;6121100;23;20472;-72
2022/03/26 11:59:44;;;;;;;8.00;4.00;;;23.50;51.50;;;;;;6121082;23;20714;-71
2022/03/26 12:02:22;;;;;;;7.93;4.10;;;23.60;52.20;;;;;;6120716;23;20437;-71
2022/03/26 12:04:52;;;;;;;6.50;4.33;;;23.70;51.60;;;;;;6120334;23;20475;-71
2022/03/26 12:07:23;;;;;;;8.47;3.97;;;23.80;49.90;;;;;;6119966;23;20413;-71
2022/03/26 12:10:04;;;;;;;4.50;3.50;;;23.80;50.30;;;;;;6119912;23;20504;-72
2022/03/26 12:12:50;;;;;;;8.60;3.37;;;24.00;48.50;;;;;;6121122;23;20400;-71
2022/03/26 12:15:26;;;;;;;7.30;4.13;;;24.00;50.20;;;;;;6092870;23;20425;-71
2022/03/26 12:17:54;;;;;;;7.80;3.50;;;24.10;49.00;;;;;;6120638;23;20425;-71
2022/03/26 12:20:28;;;;;;;9.50;3.80;;;24.10;48.80;;;;;;6120404;23;20754;-71
2022/03/26 12:23:06;;;;;;;9.20;3.63;;;24.20;48.00;;;;;;6121014;23;20429;-71
2022/03/26 12:25:38;;;;;;;7.07;3.30;;;24.20;48.50;;;;;;6120798;23;20409;-70
2022/03/26 12:28:06;;;;;;;6.90;3.80;;;24.30;48.60;;;;;;6120680;23;20918;-70
2022/03/26 12:30:34;;;;;;;7.70;3.70;;;24.50;47.60;;;;;;6120642;23;20479;-71
2022/03/26 12:33:01;;;;;;;9.50;3.47;;;24.50;49.20;;;;;;6120692;23;21014;-70
2022/03/26 12:35:29;;;;;;;13.97;4.63;;;24.70;48.80;;;;;;6120855;23;20433;-70
2022/03/26 12:37:56;;;;;;;6.60;3.27;;;24.90;48.40;;;;;;6120509;23;20417;-69
2022/03/26 12:40:25;;;;;;;12.27;4.57;;;25.10;48.40;;;;;;6121126;23;20444;-70
2022/03/26 12:42:56;;;;;;;7.97;3.80;;;25.00;46.10;;;;;;6120446;23;20445;-70
2022/03/26 12:45:23;;;;;;;8.23;4.00;;;24.90;46.10;;;;;;6121363;23;20428;-70
2022/03/26 12:47:50;;;;;;;8.00;3.57;;;24.90;48.20;;;;;;6120403;23;20425;-70
2022/03/26 12:50:21;;;;;;;8.47;3.70;;;24.80;47.20;;;;;;6120129;23;20439;-70
2022/03/26 12:52:49;;;;;;;6.30;3.60;;;25.10;48.30;;;;;;6119984;23;20449;-69
2022/03/26 12:55:18;;;;;;;11.87;4.57;;;25.20;47.80;;;;;;6120194;23;20919;-70
2022/03/26 13:00:32;;;;;;;8.50;4.37;;;25.40;48.40;;;;;;6118051;23;20421;-70
2022/03/26 13:03:04;;;;;;;8.50;4.37;;;25.50;47.00;;;;;;6119067;23;20481;-70
2022/03/26 13:05:32;;;;;;;7.83;3.43;;;25.60;47.70;;;;;;6120146;23;20406;-70
2022/03/26 13:08:00;;;;;;;9.40;4.57;;;25.70;46.60;;;;;;6121341;23;20449;-72
2022/03/26 13:10:31;;;;;;;7.93;4.17;;;25.60;46.90;;;;;;6121898;23;20433;-71